createdAt,value
2022-09-09T00:02:30.960Z,84.61
2022-09-09T00:05:11.133Z,83.81
2022-09-09T00:07:49.238Z,84.18
2022-09-09T00:10:24.761Z,84.45
2022-09-09T00:13:10.393Z,84.99
2022-09-09T00:15:52.656Z,84.60
2022-09-09T00:18:30.421Z,84.75
2022-09-09T00:21:08.630Z,84.76
2022-09-09T00:23:43.166Z,84.85
2022-09-09T00:26:19.050Z,84.71
2022-09-09T00:28:57.553Z,84.92
2022-09-09T00:31:32.162Z,85.07
2022-09-09T00:34:13.966Z,85.70
2022-09-09T00:36:45.685Z,85.63
2022-09-09T00:39:33.545Z,85.95
2022-09-09T00:42:17.119Z,86.83
2022-09-09T00:45:00.003Z,85.95
2022-09-09T00:47:51.977Z,86.67
2022-09-09T00:50:36.786Z,86.69
2022-09-09T00:53:25.828Z,86.81
2022-09-09T00:56:06.522Z,86.06
2022-09-09T00:58:35.849Z,86.11
2022-09-09T01:01:08.835Z,86.07
2022-09-09T01:03:46.431Z,86.89
2022-09-09T01:06:22.199Z,86.90
2022-09-09T01:09:20.351Z,86.98
2022-09-09T01:12:01.857Z,87.81
2022-09-09T01:14:45.442Z,87.14
2022-09-09T01:17:21.790Z,87.52
2022-09-09T01:20:13.974Z,87.50
2022-09-09T01:23:06.084Z,87.36
2022-09-09T01:26:28.682Z,88.34
2022-09-09T01:29:01.141Z,87.66
2022-09-09T01:31:42.087Z,87.49
2022-09-09T01:34:14.587Z,87.43
2022-09-09T01:36:52.046Z,87.81
2022-09-09T01:39:22.430Z,87.97
2022-09-09T01:42:01.729Z,88.63
2022-09-09T01:44:32.140Z,88.61
2022-09-09T01:47:01.631Z,88.66
2022-09-09T01:49:31.015Z,88.98
2022-09-09T01:52:01.279Z,88.10
2022-09-09T01:54:36.269Z,88.93
2022-09-09T01:57:20.933Z,88.55
2022-09-09T02:00:07.466Z,89.14
2022-09-09T02:02:55.775Z,88.23
2022-09-09T02:05:38.958Z,89.82
2022-09-09T02:08:23.036Z,89.22
2022-09-09T02:11:03.388Z,88.46
2022-09-09T02:13:46.488Z,88.68
2022-09-09T02:16:26.095Z,89.64
2022-09-09T02:19:03.424Z,89.11
2022-09-09T02:21:46.373Z,88.83
2022-09-09T02:24:18.154Z,89.05
2022-09-09T02:26:56.814Z,89.18
2022-09-09T02:29:33.989Z,89.06
2022-09-09T02:32:09.722Z,89.43
2022-09-09T02:34:50.207Z,88.94
2022-09-09T02:37:22.668Z,88.84
2022-09-09T02:39:55.699Z,88.81
2022-09-09T02:42:26.140Z,88.88
2022-09-09T02:44:58.919Z,89.07
2022-09-09T02:47:37.401Z,88.92
2022-09-09T02:50:17.938Z,89.27
2022-09-09T02:53:08.659Z,89.31
2022-09-09T02:55:49.412Z,88.82
2022-09-09T02:58:21.738Z,88.73
2022-09-09T03:01:06.344Z,89.67
2022-09-09T03:03:35.892Z,89.59
2022-09-09T03:06:11.053Z,89.86
2022-09-09T03:08:41.661Z,89.53
2022-09-09T03:11:15.730Z,89.13
2022-09-09T03:13:45.621Z,88.73
2022-09-09T03:16:16.921Z,89.93
2022-09-09T03:18:50.187Z,89.61
2022-09-09T03:21:19.575Z,89.51
2022-09-09T03:23:49.308Z,89.86
2022-09-09T03:26:18.881Z,89.91
2022-09-09T03:28:50.895Z,88.97
2022-09-09T03:31:22.980Z,89.15
2022-09-09T03:33:53.409Z,89.45
2022-09-09T03:36:24.056Z,89.07
2022-09-09T03:38:53.401Z,89.36
2022-09-09T03:41:25.011Z,88.72
2022-09-09T03:43:55.813Z,89.99
2022-09-09T03:46:28.581Z,89.98
2022-09-09T03:48:58.290Z,89.14
2022-09-09T03:51:27.515Z,88.97
2022-09-09T03:53:57.929Z,89.64
2022-09-09T03:56:28.449Z,89.02
2022-09-09T03:58:58.613Z,89.28
2022-09-09T04:01:30.509Z,89.67
2022-09-09T04:04:00.219Z,89.44
2022-09-09T04:06:29.810Z,89.45
2022-09-09T04:08:59.348Z,89.97
2022-09-09T04:11:29.352Z,89.91
2022-09-09T04:14:01.226Z,90.17
2022-09-09T04:16:33.907Z,90.38
2022-09-09T04:19:05.275Z,89.41
2022-09-09T04:21:34.670Z,90.77
2022-09-09T04:24:05.260Z,90.02
2022-09-09T04:26:34.537Z,90.88
2022-09-09T04:29:04.213Z,90.15
2022-09-09T04:31:35.818Z,90.09
2022-09-09T04:34:06.423Z,89.91
2022-09-09T04:36:36.731Z,90.44
2022-09-09T04:39:08.166Z,89.82
2022-09-09T04:41:37.387Z,90.20
2022-09-09T04:44:06.995Z,89.40
2022-09-09T04:46:37.741Z,89.55
2022-09-09T04:49:08.066Z,90.80
2022-09-09T04:51:38.379Z,90.80
2022-09-09T04:54:08.349Z,89.64
2022-09-09T04:56:39.976Z,90.18
2022-09-09T04:59:09.278Z,90.69
2022-09-09T05:01:46.839Z,90.46
2022-09-09T05:04:16.414Z,90.77
2022-09-09T05:06:46.944Z,90.79
2022-09-09T05:09:16.614Z,90.63
2022-09-09T05:11:47.360Z,91.39
2022-09-09T05:14:24.240Z,91.03
2022-09-09T05:16:54.814Z,91.13
2022-09-09T05:19:25.604Z,90.50
2022-09-09T05:21:56.146Z,91.18
2022-09-09T05:24:34.311Z,91.30
2022-09-09T05:27:06.463Z,91.44
2022-09-09T05:29:36.178Z,90.84
2022-09-09T05:32:13.551Z,91.21
2022-09-09T05:34:45.988Z,91.63
2022-09-09T05:37:15.248Z,91.60
2022-09-09T05:39:45.428Z,91.59
2022-09-09T05:42:15.349Z,91.47
2022-09-09T05:44:45.981Z,90.81
2022-09-09T05:47:17.150Z,91.03
2022-09-09T05:49:46.664Z,91.44
2022-09-09T05:52:16.076Z,91.60
2022-09-09T05:54:45.391Z,91.44
2022-09-09T05:57:14.566Z,92.09
2022-09-09T05:59:43.828Z,91.60
2022-09-09T06:02:13.712Z,91.87
2022-09-09T06:04:44.432Z,91.54
2022-09-09T06:07:15.850Z,92.45
2022-09-09T06:09:45.170Z,91.92
2022-09-09T06:12:15.430Z,92.38
2022-09-09T06:14:46.543Z,91.63
2022-09-09T06:17:19.699Z,91.77
2022-09-09T06:19:53.356Z,91.33
2022-09-09T06:22:25.144Z,92.47
2022-09-09T06:24:54.705Z,92.16
2022-09-09T06:27:23.863Z,92.63
2022-09-09T06:29:53.470Z,92.30
2022-09-09T06:32:22.762Z,92.33
2022-09-09T06:34:54.450Z,91.27
2022-09-09T06:37:25.200Z,91.91
2022-09-09T06:39:55.850Z,92.20
2022-09-09T06:42:25.651Z,91.94
2022-09-09T06:45:08.278Z,92.58
2022-09-09T06:47:47.815Z,91.33
2022-09-09T06:50:19.317Z,91.91
2022-09-09T06:52:49.804Z,92.28
2022-09-09T06:55:20.982Z,91.67
2022-09-09T06:57:51.359Z,91.57
2022-09-09T07:00:27.192Z,91.60
2022-09-09T07:02:56.644Z,92.16
2022-09-09T07:05:27.768Z,91.51
2022-09-09T07:07:57.483Z,92.17
2022-09-09T07:10:27.539Z,92.17
2022-09-09T07:12:58.154Z,91.70
2022-09-09T07:15:28.453Z,91.82
2022-09-09T07:17:57.850Z,92.22
2022-09-09T07:20:32.285Z,91.83
2022-09-09T07:23:04.645Z,91.42
2022-09-09T07:25:33.994Z,91.80
2022-09-09T07:28:04.461Z,92.39
2022-09-09T07:30:38.349Z,91.57
2022-09-09T07:33:10.659Z,91.61
2022-09-09T07:35:41.780Z,91.73
2022-09-09T07:38:12.327Z,91.52
2022-09-09T07:40:41.553Z,90.74
2022-09-09T07:43:13.335Z,91.85
2022-09-09T07:45:46.115Z,91.38
2022-09-09T07:48:15.521Z,91.21
2022-09-09T07:50:48.627Z,91.64
2022-09-09T07:53:18.584Z,92.09
2022-09-09T07:55:48.337Z,91.67
2022-09-09T07:58:17.491Z,91.42
2022-09-09T08:00:46.787Z,90.84
2022-09-09T08:03:16.188Z,90.48
2022-09-09T08:05:45.338Z,90.96
2022-09-09T08:08:17.423Z,90.65
2022-09-09T08:10:48.003Z,90.61
2022-09-09T08:13:19.206Z,90.88
2022-09-09T08:15:52.257Z,90.70
2022-09-09T08:18:23.172Z,90.74
2022-09-09T08:20:52.772Z,88.96
2022-09-09T08:23:23.565Z,86.84
2022-09-09T08:25:52.728Z,87.65
2022-09-09T08:28:22.285Z,88.49
2022-09-09T08:30:54.381Z,88.38
2022-09-09T08:33:24.021Z,87.83
2022-09-09T08:35:54.281Z,87.41
2022-09-09T08:38:25.744Z,88.05
2022-09-09T08:41:07.227Z,86.64
2022-09-09T08:43:36.906Z,87.26
2022-09-09T08:46:13.876Z,84.52
2022-09-09T08:48:59.167Z,85.51
2022-09-09T08:51:31.644Z,87.03
2022-09-09T08:54:05.616Z,87.25
2022-09-09T08:56:36.199Z,86.36
2022-09-09T08:59:07.344Z,84.77
2022-09-09T09:01:56.077Z,85.44
2022-09-09T09:05:07.612Z,83.74
2022-09-09T09:07:56.870Z,83.96
2022-09-09T09:10:50.090Z,83.28
2022-09-09T09:13:29.202Z,84.65
2022-09-09T09:16:09.103Z,83.12
2022-09-09T09:18:38.918Z,83.39
2022-09-09T09:21:17.065Z,82.49
2022-09-09T09:23:55.125Z,83.89
2022-09-09T09:26:32.140Z,83.40
2022-09-09T09:29:04.113Z,84.06
2022-09-09T09:31:33.521Z,83.55
2022-09-09T09:34:03.551Z,83.02
2022-09-09T09:36:42.487Z,82.63
2022-09-09T09:42:21.666Z,82.25
2022-09-09T09:44:53.469Z,80.54
2022-09-09T09:47:25.555Z,81.57
2022-09-09T09:50:03.683Z,81.37
2022-09-09T09:52:38.560Z,81.49
2022-09-09T09:55:16.781Z,80.53
2022-09-09T09:57:50.197Z,80.01
2022-09-09T10:00:23.029Z,80.93
2022-09-09T10:03:03.347Z,80.45
2022-09-09T10:05:38.952Z,79.34
2022-09-09T10:08:17.628Z,79.09
2022-09-09T10:11:15.867Z,78.54
2022-09-09T10:13:55.687Z,79.08
2022-09-09T10:16:45.359Z,77.35
2022-09-09T10:19:19.265Z,78.58
2022-09-09T10:22:18.318Z,75.35
2022-09-09T10:25:36.381Z,75.48
2022-09-09T10:28:59.944Z,73.08
2022-09-09T10:31:39.617Z,71.37
2022-09-09T10:34:29.771Z,72.80
2022-09-09T10:37:01.661Z,73.33
2022-09-09T10:39:43.176Z,73.27
2022-09-09T10:42:16.431Z,71.96
2022-09-09T10:45:04.217Z,70.25
2022-09-09T10:48:06.999Z,67.64
2022-09-09T10:51:01.112Z,66.01
2022-09-09T10:53:47.597Z,66.91
2022-09-09T10:56:20.933Z,66.91
2022-09-09T10:58:54.627Z,67.49
2022-09-09T11:01:30.400Z,66.25
2022-09-09T11:04:05.863Z,66.97
2022-09-09T11:06:42.122Z,68.10
2022-09-09T11:09:18.148Z,68.43
2022-09-09T11:11:55.405Z,68.52
2022-09-09T11:14:37.403Z,68.43
2022-09-09T11:17:15.899Z,68.23
2022-09-09T11:19:46.503Z,69.12
2022-09-09T11:22:30.494Z,68.87
2022-09-09T11:25:05.895Z,67.67
2022-09-09T11:27:45.476Z,68.07
2022-09-09T11:30:44.559Z,67.48
2022-09-09T11:34:00.523Z,67.89
2022-09-09T11:37:08.336Z,66.19
2022-09-09T11:40:16.291Z,67.76
2022-09-09T11:42:45.818Z,68.92
2022-09-09T11:45:28.342Z,67.84
2022-09-09T11:48:00.060Z,68.30
2022-09-09T11:50:39.028Z,69.63
2022-09-09T11:53:25.907Z,69.52
2022-09-09T11:56:14.078Z,70.34
2022-09-09T11:58:58.786Z,68.97
2022-09-09T12:01:38.253Z,66.70
2022-09-09T12:04:35.028Z,64.75
2022-09-09T12:07:24.893Z,65.02
2022-09-09T12:09:59.709Z,64.38
2022-09-09T12:12:33.957Z,63.60
2022-09-09T12:15:25.644Z,61.56
2022-09-09T12:18:02.126Z,62.15
2022-09-09T12:20:37.279Z,60.43
2022-09-09T12:23:32.110Z,57.65
2022-09-09T12:26:21.896Z,56.65
2022-09-09T12:29:05.692Z,58.19
2022-09-09T12:31:45.754Z,58.86
2022-09-09T12:34:22.783Z,57.36
2022-09-09T12:36:59.534Z,58.01
2022-09-09T12:39:38.651Z,57.29
2022-09-09T12:42:18.640Z,58.62
2022-09-09T12:44:56.511Z,59.04
2022-09-09T12:47:34.758Z,59.53
2022-09-09T12:50:04.282Z,60.51
2022-09-09T12:52:38.381Z,60.42
2022-09-09T12:55:10.246Z,61.27
2022-09-09T12:57:41.689Z,61.65
2022-09-09T13:00:18.549Z,61.84
2022-09-09T13:02:54.147Z,61.90
2022-09-09T13:05:29.195Z,60.29
2022-09-09T13:08:04.657Z,59.29
2022-09-09T13:11:01.782Z,58.13
2022-09-09T13:13:42.182Z,57.86
2022-09-09T13:16:24.044Z,54.21
2022-09-09T13:18:54.122Z,55.44
2022-09-09T13:21:35.648Z,56.10
2022-09-09T13:24:08.652Z,56.80
2022-09-09T13:26:39.625Z,57.48
2022-09-09T13:29:20.229Z,57.01
2022-09-09T13:31:53.636Z,57.85
2022-09-09T13:34:32.716Z,56.81
2022-09-09T13:37:06.316Z,56.92
2022-09-09T13:39:38.081Z,56.71
2022-09-09T13:42:26.442Z,56.18
2022-09-09T13:44:56.934Z,56.43
2022-09-09T13:47:33.824Z,57.94
2022-09-09T13:50:22.147Z,59.98
2022-09-09T13:52:52.570Z,60.50
2022-09-09T13:55:24.563Z,60.53
2022-09-09T13:57:57.253Z,61.33
2022-09-09T14:00:27.457Z,61.69
2022-09-09T14:02:57.121Z,61.99
2022-09-09T14:05:26.453Z,61.90
2022-09-09T14:07:55.936Z,62.39
2022-09-09T14:10:25.093Z,62.76
2022-09-09T14:12:55.760Z,62.83
2022-09-09T14:15:25.224Z,62.45
2022-09-09T14:17:54.420Z,63.06
2022-09-09T14:20:23.646Z,62.90
2022-09-09T14:22:54.497Z,63.30
2022-09-09T14:25:23.688Z,63.73
2022-09-09T14:27:54.234Z,64.00
2022-09-09T14:30:23.364Z,65.10
2022-09-09T14:32:52.667Z,66.22
2022-09-09T14:35:23.344Z,67.14
2022-09-09T14:37:52.849Z,66.99
2022-09-09T14:40:22.571Z,66.25
2022-09-09T14:42:52.374Z,66.75
2022-09-09T14:45:25.941Z,67.27
2022-09-09T14:47:55.584Z,67.88
2022-09-09T14:50:26.263Z,66.72
2022-09-09T14:52:55.443Z,64.77
2022-09-09T14:55:24.690Z,62.99
2022-09-09T14:57:53.896Z,61.64
2022-09-09T15:02:55.889Z,59.45
2022-09-09T15:05:25.458Z,57.67
2022-09-09T15:07:54.560Z,58.05
2022-09-09T15:10:23.702Z,58.17
2022-09-09T15:12:52.854Z,58.52
2022-09-09T15:15:23.391Z,58.03
2022-09-09T15:17:52.532Z,58.37
2022-09-09T15:20:21.646Z,57.74
2022-09-09T15:22:51.948Z,57.47
2022-09-09T15:25:22.937Z,57.77
2022-09-09T15:27:52.154Z,58.46
2022-09-09T15:30:21.410Z,58.10
2022-09-09T15:32:54.085Z,57.89
2022-09-09T15:35:23.317Z,58.51
2022-09-09T15:37:52.467Z,58.82
2022-09-09T15:40:21.729Z,58.91
2022-09-09T15:42:50.943Z,58.46
2022-09-09T15:45:21.678Z,58.93
2022-09-09T15:47:53.031Z,58.13
2022-09-09T15:50:22.278Z,59.23
2022-09-09T15:52:53.369Z,58.74
2022-09-09T15:55:23.185Z,59.13
2022-09-09T15:57:53.269Z,59.37
2022-09-09T16:00:23.763Z,60.06
2022-09-09T16:02:57.566Z,59.74
2022-09-09T16:05:26.921Z,60.13
2022-09-09T16:07:59.435Z,59.51
2022-09-09T16:10:30.313Z,60.31
2022-09-09T16:13:02.944Z,59.80
2022-09-09T16:15:32.324Z,59.73
2022-09-09T16:18:05.392Z,58.94
2022-09-09T16:20:34.544Z,59.03
2022-09-09T16:23:04.027Z,59.30
2022-09-09T16:25:33.436Z,59.29
2022-09-09T16:28:02.911Z,59.47
2022-09-09T16:30:35.204Z,60.19
2022-09-09T16:33:09.041Z,59.91
2022-09-09T16:35:41.493Z,59.91
2022-09-09T16:38:11.127Z,60.44
2022-09-09T16:40:43.029Z,60.48
2022-09-09T16:43:16.514Z,61.22
2022-09-09T16:45:46.490Z,60.80
2022-09-09T16:48:18.825Z,61.28
2022-09-09T16:50:48.051Z,60.74
2022-09-09T16:53:19.872Z,60.72
2022-09-09T16:55:49.319Z,60.49
2022-09-09T16:58:19.014Z,60.84
2022-09-09T17:00:50.076Z,60.42
2022-09-09T17:03:20.889Z,61.14
2022-09-09T17:05:50.069Z,60.96
2022-09-09T17:08:19.338Z,61.46
2022-09-09T17:10:49.311Z,61.83
2022-09-09T17:13:20.772Z,60.75
2022-09-09T17:15:50.170Z,62.06
2022-09-09T17:18:21.748Z,61.28
2022-09-09T17:20:50.969Z,61.93
2022-09-09T17:23:20.661Z,62.04
2022-09-09T17:25:59.161Z,61.67
2022-09-09T17:28:32.167Z,62.04
2022-09-09T17:31:04.012Z,62.37
2022-09-09T17:33:35.679Z,61.94
2022-09-09T17:36:12.283Z,62.68
2022-09-09T17:38:43.593Z,62.20
2022-09-09T17:41:16.815Z,62.37
2022-09-09T17:43:46.912Z,62.89
2022-09-09T17:46:20.797Z,63.39
2022-09-09T17:48:54.014Z,63.55
2022-09-09T17:51:27.160Z,63.68
2022-09-09T17:53:59.435Z,64.02
2022-09-09T17:56:31.664Z,63.77
2022-09-09T17:59:03.049Z,63.87
2022-09-09T18:01:34.479Z,63.87
2022-09-09T18:04:07.832Z,64.15
2022-09-09T18:06:39.450Z,64.01
2022-09-09T18:09:13.314Z,64.06
2022-09-09T18:11:45.487Z,64.35
2022-09-09T18:14:18.224Z,63.82
2022-09-09T18:16:48.549Z,63.85
2022-09-09T18:19:22.936Z,63.80
2022-09-09T18:21:52.571Z,63.59
2022-09-09T18:24:23.432Z,64.38
2022-09-09T18:26:53.642Z,64.22
2022-09-09T18:29:25.546Z,64.26
2022-09-09T18:31:56.594Z,64.58
2022-09-09T18:34:28.844Z,65.07
2022-09-09T18:36:59.042Z,64.67
2022-09-09T18:39:30.849Z,64.79
2022-09-09T18:42:02.471Z,64.81
2022-09-09T18:44:33.736Z,64.98
2022-09-09T18:47:04.121Z,64.59
2022-09-09T18:49:34.684Z,64.25
2022-09-09T18:52:04.868Z,64.16
2022-09-09T18:54:34.825Z,64.55
2022-09-09T18:57:04.005Z,64.09
2022-09-09T18:59:33.555Z,63.97
2022-09-09T19:02:02.783Z,64.70
2022-09-09T19:04:34.154Z,64.45
2022-09-09T19:07:03.276Z,65.12
2022-09-09T19:09:34.357Z,64.51
2022-09-09T19:12:05.898Z,64.60
2022-09-09T19:14:35.201Z,65.02
2022-09-09T19:17:05.007Z,64.44
2022-09-09T19:19:35.918Z,64.81
2022-09-09T19:22:07.005Z,64.94
2022-09-09T19:24:37.621Z,64.19
2022-09-09T19:27:08.813Z,64.81
2022-09-09T19:29:42.852Z,65.21
2022-09-09T19:35:03.308Z,64.64
2022-09-09T19:37:32.814Z,64.54
2022-09-09T19:40:02.428Z,64.61
2022-09-09T19:42:32.280Z,65.02
2022-09-09T19:45:01.721Z,64.53
2022-09-09T19:47:30.974Z,65.06
2022-09-09T19:50:00.240Z,65.11
2022-09-09T19:52:31.167Z,65.15
2022-09-09T19:55:01.345Z,64.87
2022-09-09T19:57:31.114Z,64.65
2022-09-09T20:00:00.982Z,65.09
2022-09-09T20:02:31.105Z,65.20
2022-09-09T20:05:00.289Z,65.21
2022-09-09T20:07:30.885Z,66.22
2022-09-09T20:10:00.442Z,65.85
2022-09-09T20:12:29.833Z,66.01
2022-09-09T20:14:58.978Z,66.13
2022-09-09T20:17:28.147Z,65.45
2022-09-09T20:19:57.676Z,65.85
2022-09-09T20:22:26.881Z,65.36
2022-09-09T20:24:57.473Z,66.25
2022-09-09T20:27:27.716Z,66.08
2022-09-09T20:29:56.861Z,65.93
2022-09-09T20:32:26.205Z,65.65
2022-09-09T20:34:55.673Z,65.94
2022-09-09T20:37:25.072Z,65.93
2022-09-09T20:39:55.910Z,66.01
2022-09-09T20:42:26.531Z,65.75
2022-09-09T20:44:55.685Z,66.30
2022-09-09T20:47:24.986Z,66.15
2022-09-09T20:49:54.223Z,66.80
2022-09-09T20:52:23.410Z,66.73
2022-09-09T20:54:54.311Z,66.94
2022-09-09T20:57:24.597Z,66.38
2022-09-09T20:59:55.201Z,66.87
2022-09-09T21:02:24.459Z,66.66
2022-09-09T21:04:54.073Z,66.88
2022-09-09T21:07:24.094Z,66.61
2022-09-09T21:09:57.836Z,67.13
2022-09-09T21:12:27.945Z,66.79
2022-09-09T21:14:58.879Z,67.45
2022-09-09T21:17:29.016Z,67.72
2022-09-09T21:19:58.256Z,67.32
2022-09-09T21:22:27.428Z,67.70
2022-09-09T21:24:56.796Z,67.00
2022-09-09T21:27:26.170Z,67.13
2022-09-09T21:29:55.289Z,67.68
2022-09-09T21:32:25.938Z,67.85
2022-09-09T21:34:55.232Z,68.37
2022-09-09T21:37:24.441Z,67.71
2022-09-09T21:39:57.025Z,68.04
2022-09-09T21:42:28.569Z,68.65
2022-09-09T21:44:57.848Z,68.30
2022-09-09T21:47:28.458Z,68.86
2022-09-09T21:49:57.550Z,68.73
2022-09-09T21:52:26.804Z,68.62
2022-09-09T21:54:56.004Z,68.96
2022-09-09T21:57:25.742Z,69.14
2022-09-09T21:59:55.037Z,69.02
2022-09-09T22:02:24.746Z,68.76
2022-09-09T22:04:55.409Z,68.78
2022-09-09T22:07:24.726Z,69.58
2022-09-09T22:09:53.945Z,70.09
2022-09-09T22:12:23.032Z,70.13
2022-09-09T22:14:53.481Z,70.54
2022-09-09T22:17:24.950Z,70.42
2022-09-09T22:19:55.608Z,70.92
2022-09-09T22:22:24.832Z,70.64
2022-09-09T22:24:54.028Z,71.34
2022-09-09T22:27:23.286Z,71.08
2022-09-09T22:29:52.557Z,71.20
2022-09-09T22:32:22.873Z,71.12
2022-09-09T22:34:52.150Z,71.46
2022-09-09T22:37:23.302Z,71.32
2022-09-09T22:39:52.516Z,71.41
2022-09-09T22:42:22.836Z,71.11
2022-09-09T22:44:52.054Z,71.37
2022-09-09T22:47:21.272Z,71.69
2022-09-09T22:49:50.476Z,71.70
2022-09-09T22:52:21.042Z,71.20
2022-09-09T22:54:50.133Z,71.77
2022-09-09T22:57:19.575Z,72.09
2022-09-09T22:59:50.038Z,72.25
2022-09-09T23:02:20.777Z,71.89
2022-09-09T23:04:50.281Z,72.16
2022-09-09T23:07:21.021Z,72.70
2022-09-09T23:09:51.665Z,72.31
2022-09-09T23:12:22.269Z,72.34
2022-09-09T23:14:52.101Z,72.54
2022-09-09T23:17:21.575Z,72.84
2022-09-09T23:19:53.345Z,72.87
2022-09-09T23:22:23.103Z,73.04
2022-09-09T23:24:54.124Z,73.40
2022-09-09T23:27:23.335Z,73.93
2022-09-09T23:29:52.527Z,73.92
2022-09-09T23:32:22.069Z,73.57
2022-09-09T23:34:51.827Z,73.91
2022-09-09T23:37:21.046Z,73.91
2022-09-09T23:39:50.240Z,73.47
2022-09-09T23:42:20.881Z,73.91
2022-09-09T23:44:50.932Z,73.76
2022-09-09T23:47:20.100Z,74.32
2022-09-09T23:49:50.711Z,74.02
2022-09-09T23:52:19.970Z,74.32
2022-09-09T23:54:49.965Z,74.07
2022-09-09T23:57:21.883Z,74.95
2022-09-09T23:59:51.203Z,74.88
